Terminal Aerodrome Forecast
Issued by NWS

Home | Current Version | Previous Version | Text Only | Print | Product List | Glossary On
Versions: 1 2 3 4 5 6 7 8 9 10 11 12 13 14 15 16 17 18
000
FTUS46 KPDT 230500
TAFPSC
TAF
KPSC 230520Z 2306/2406 24008G15KT P6SM FEW070 BKN100
     FM231200 20007KT P6SM SCT060 BKN090
     FM231800 23008G15KT P6SM VCSH BKN050 OVC080
     FM232200 24010G20KT P6SM VCSH BKN040 OVC070=

USA.gov is the U.S. government's official web portal to all federal, state and local government web resources and services.